Andøya/Andenes Airport

Airport
ICAO code: 
ENAN
IATA Code: 
ANX
Summary
ICAO Region: 
EUR
Territory: 
Location: 
Andøya,
Serving: 
Andenes
Elevation: 
43 ft
Coordinates: 
Aerial View: 
69° 17' 33" N, 16° 8' 39.001" E
Metar
Observation
ENAN 050750Z AUTO 21009KT 9999 OVC037/// M08/M13 Q1021
Station
Andoya
Date/Time
2021-12-05 07:50:00
Wind direction
210°
Wind speed
09 kts
Lowest cloud amount
overcast
Temperature
-8°C
Dew point
-13°C
Humidity
67%
QNH
1021 hPa
Weather condition
n/a

Airport serving Andenes, Norway, in the municipality of Andøy. It is located right next to the town of Andenes 1 nm south, and covers major parts of the northern tip of island Andøya. It is part of Andøya Air Station, who operate Orion surveillance aircraft. The Norwegian Space Centre and Andøya Rocket Range are also located at the airport.

Climatology

Borderline Subpolar Oceanic/Continental subarctic climate (because of winter temperatures) (Köppen climate classification Cfc/Dfc) - uniform precipitation distribution, temperatures are moderated by the proximity of the ocean and warm currents - cool summers and comparatively mild winters.

Runways

Designator Length Width Surface Rops
3/21 1672 45 ASP No/No
14/32 2468 45 ASP No/No
Airport map: 
Aerial View: 

SKYbrary Partners:

Safety knowledge contributed by: